createdAt,value
2018-05-13T00:00:03.824Z,0.00
2018-05-13T00:01:04.053Z,0.00
2018-05-13T00:02:04.283Z,0.00
2018-05-13T00:03:04.514Z,0.00
2018-05-13T00:04:04.742Z,0.00
2018-05-13T00:05:04.971Z,0.00
2018-05-13T00:06:05.201Z,0.00
2018-05-13T00:07:05.440Z,0.00
2018-05-13T00:08:05.661Z,0.00
2018-05-13T00:09:05.894Z,0.00
2018-05-13T00:10:06.127Z,0.00
2018-05-13T00:11:06.357Z,0.00
2018-05-13T00:12:06.590Z,0.00
2018-05-13T00:13:06.820Z,0.00
2018-05-13T00:14:07.049Z,0.00
2018-05-13T00:15:07.276Z,0.00
2018-05-13T00:16:07.508Z,0.00
2018-05-13T00:17:07.740Z,0.00
2018-05-13T00:18:07.973Z,0.00
2018-05-13T00:19:08.204Z,0.00
2018-05-13T00:20:08.426Z,0.00
2018-05-13T00:21:08.657Z,0.00
2018-05-13T00:22:08.887Z,0.00
2018-05-13T00:23:09.116Z,0.00
2018-05-13T00:24:09.350Z,0.00
2018-05-13T00:25:09.577Z,0.00
2018-05-13T00:26:09.815Z,0.00
2018-05-13T00:27:10.030Z,0.00
2018-05-13T00:28:10.278Z,0.00
2018-05-13T00:29:10.509Z,0.00
2018-05-13T00:30:10.740Z,0.00
2018-05-13T00:31:10.966Z,0.00
2018-05-13T00:32:11.195Z,0.00
2018-05-13T00:33:11.430Z,0.00
2018-05-13T00:34:11.662Z,0.00
2018-05-13T00:35:11.894Z,0.00
2018-05-13T00:36:12.121Z,0.00
2018-05-13T00:37:12.352Z,0.00
2018-05-13T00:38:12.579Z,0.00
2018-05-13T00:39:12.809Z,0.00
2018-05-13T00:40:13.041Z,0.00
2018-05-13T00:41:13.268Z,0.00
2018-05-13T00:42:13.495Z,0.00
2018-05-13T00:43:13.724Z,0.00
2018-05-13T00:44:13.958Z,0.00
2018-05-13T00:45:14.193Z,0.00
2018-05-13T00:46:14.426Z,0.00
2018-05-13T00:47:14.647Z,0.00
2018-05-13T00:48:14.881Z,0.00
2018-05-13T00:49:15.110Z,0.00
2018-05-13T00:50:15.339Z,0.00
2018-05-13T00:51:15.569Z,0.00
2018-05-13T00:52:15.801Z,0.00
2018-05-13T00:53:16.030Z,0.00
2018-05-13T00:54:16.261Z,0.00
2018-05-13T00:55:16.493Z,0.00
2018-05-13T00:56:16.727Z,0.00
2018-05-13T00:57:16.952Z,0.00
2018-05-13T00:58:17.178Z,0.00
2018-05-13T00:59:17.405Z,0.00
2018-05-13T01:00:17.634Z,0.00
2018-05-13T01:01:17.863Z,0.00
2018-05-13T01:02:18.097Z,0.00
2018-05-13T01:03:18.330Z,0.00
2018-05-13T01:04:18.565Z,0.00
2018-05-13T01:05:18.790Z,0.00
2018-05-13T01:06:19.020Z,0.00
2018-05-13T01:07:19.250Z,0.00
2018-05-13T01:08:19.478Z,0.00
2018-05-13T01:09:19.708Z,0.00
2018-05-13T01:10:19.943Z,0.00
2018-05-13T01:11:20.172Z,0.00
2018-05-13T01:12:20.404Z,0.00
2018-05-13T01:13:20.638Z,0.00
2018-05-13T01:14:20.862Z,0.00
2018-05-13T01:15:21.091Z,0.00
2018-05-13T01:16:21.323Z,0.00
2018-05-13T01:17:21.560Z,0.00
2018-05-13T01:18:21.782Z,0.00
2018-05-13T01:19:22.010Z,0.00
2018-05-13T01:20:22.244Z,0.00
2018-05-13T01:21:22.472Z,0.00
2018-05-13T01:22:22.708Z,0.00
2018-05-13T01:23:22.933Z,0.00
2018-05-13T01:24:23.164Z,0.00
2018-05-13T01:25:23.392Z,0.00
2018-05-13T01:26:23.620Z,0.00
2018-05-13T01:27:23.852Z,0.00
2018-05-13T01:28:24.077Z,0.00
2018-05-13T01:29:24.312Z,0.00
2018-05-13T01:30:24.539Z,0.00
2018-05-13T01:31:24.775Z,0.00
2018-05-13T01:32:25.002Z,0.00
2018-05-13T01:33:25.231Z,0.00
2018-05-13T01:34:25.473Z,0.00
2018-05-13T01:35:25.697Z,0.00
2018-05-13T01:36:25.920Z,0.00
2018-05-13T01:37:26.146Z,0.00
2018-05-13T01:38:26.382Z,0.00
2018-05-13T01:39:26.605Z,0.00
2018-05-13T01:40:26.836Z,0.00
2018-05-13T01:41:27.068Z,0.00
2018-05-13T01:42:27.290Z,0.00
2018-05-13T01:43:27.518Z,0.00
2018-05-13T01:44:27.746Z,0.00
2018-05-13T01:45:27.974Z,0.00
2018-05-13T01:46:28.206Z,0.00
2018-05-13T01:47:28.434Z,0.00
2018-05-13T01:48:28.662Z,0.00
2018-05-13T01:49:28.897Z,0.00
2018-05-13T01:50:29.127Z,0.00
2018-05-13T01:51:29.354Z,0.00
2018-05-13T01:52:29.584Z,0.00
2018-05-13T01:53:29.814Z,0.00
2018-05-13T01:54:30.043Z,0.00
2018-05-13T01:55:30.270Z,0.00
2018-05-13T01:56:30.502Z,0.00
2018-05-13T01:57:30.734Z,0.00
2018-05-13T01:58:30.966Z,0.00
2018-05-13T01:59:31.191Z,0.00
2018-05-13T02:00:31.418Z,0.00
2018-05-13T02:01:31.650Z,0.00
2018-05-13T02:02:31.877Z,0.00
2018-05-13T02:03:32.110Z,0.00
2018-05-13T02:04:32.336Z,0.00
2018-05-13T02:05:32.566Z,0.00
2018-05-13T02:06:32.796Z,0.00
2018-05-13T02:07:33.023Z,0.00
2018-05-13T02:08:33.252Z,0.00
2018-05-13T02:09:33.484Z,0.00
2018-05-13T02:10:33.710Z,0.00
2018-05-13T02:11:33.942Z,0.00
2018-05-13T02:12:34.171Z,0.00
2018-05-13T02:13:34.402Z,0.00
2018-05-13T02:14:34.629Z,0.00
2018-05-13T02:15:34.860Z,0.00
2018-05-13T02:16:35.088Z,0.00
2018-05-13T02:17:35.318Z,0.00
2018-05-13T02:18:35.547Z,0.00
2018-05-13T02:19:35.777Z,0.00
2018-05-13T02:20:36.007Z,0.00
2018-05-13T02:21:36.234Z,0.00
2018-05-13T02:22:36.462Z,0.00
2018-05-13T02:23:36.693Z,0.00
2018-05-13T02:24:36.923Z,0.00
2018-05-13T02:25:37.153Z,0.00
2018-05-13T02:26:37.386Z,0.00
2018-05-13T02:27:37.612Z,0.00
2018-05-13T02:28:37.844Z,0.00
2018-05-13T02:29:38.078Z,0.00
2018-05-13T02:30:38.310Z,0.00
2018-05-13T02:31:38.537Z,0.00
2018-05-13T02:32:38.761Z,0.00
2018-05-13T02:33:38.992Z,0.00
2018-05-13T02:34:39.221Z,0.00
2018-05-13T02:35:39.453Z,0.00
2018-05-13T02:36:39.684Z,0.00
2018-05-13T02:37:39.918Z,0.00
2018-05-13T02:38:40.143Z,0.00
2018-05-13T02:39:40.376Z,0.00
2018-05-13T02:40:40.606Z,0.00
2018-05-13T02:41:40.833Z,0.00
2018-05-13T02:42:41.069Z,0.00
2018-05-13T02:43:41.293Z,0.00
2018-05-13T02:44:41.528Z,0.00
2018-05-13T02:45:41.763Z,0.00
2018-05-13T02:46:41.992Z,0.00
2018-05-13T02:47:42.222Z,0.00
2018-05-13T02:48:42.461Z,0.00
2018-05-13T02:49:42.679Z,0.00
2018-05-13T02:50:42.908Z,4.00
2018-05-13T02:51:43.137Z,4.00
2018-05-13T02:52:43.369Z,0.00
2018-05-13T02:53:43.596Z,0.00
2018-05-13T02:54:43.825Z,4.00
2018-05-13T02:55:44.054Z,4.00
2018-05-13T02:56:44.281Z,0.00
2018-05-13T02:57:44.512Z,4.00
2018-05-13T02:58:44.742Z,0.00
2018-05-13T02:59:44.972Z,4.00
2018-05-13T03:00:45.202Z,4.00
2018-05-13T03:01:45.432Z,4.00
2018-05-13T03:02:45.663Z,8.00
2018-05-13T03:03:45.890Z,8.00
2018-05-13T03:04:46.122Z,4.00
2018-05-13T03:05:46.346Z,8.00
2018-05-13T03:06:46.575Z,12.00
2018-05-13T03:07:46.806Z,12.00
2018-05-13T03:08:47.034Z,16.00
2018-05-13T03:09:47.263Z,16.00
2018-05-13T03:10:47.490Z,16.00
2018-05-13T03:11:47.723Z,24.00
2018-05-13T03:12:47.952Z,24.00
2018-05-13T03:13:48.181Z,28.00
2018-05-13T03:14:48.412Z,32.00
2018-05-13T03:15:48.639Z,40.00
2018-05-13T03:16:48.868Z,40.00
2018-05-13T03:17:49.097Z,52.00
2018-05-13T03:18:49.329Z,56.00
2018-05-13T03:19:49.565Z,68.00
2018-05-13T03:20:49.787Z,76.00
2018-05-13T03:21:50.020Z,88.00
2018-05-13T03:22:50.247Z,100.00
2018-05-13T03:23:50.479Z,112.00
2018-05-13T03:24:50.707Z,128.00
2018-05-13T03:25:50.935Z,144.00
2018-05-13T03:26:51.165Z,164.00
2018-05-13T03:27:51.394Z,184.00
2018-05-13T03:28:51.624Z,208.00
2018-05-13T03:29:51.853Z,228.00
2018-05-13T03:30:52.083Z,252.00
2018-05-13T03:31:52.313Z,276.00
2018-05-13T03:32:52.543Z,300.00
2018-05-13T03:33:52.773Z,320.00
2018-05-13T03:34:53.008Z,344.00
2018-05-13T03:35:53.233Z,368.00
2018-05-13T03:36:53.459Z,396.00
2018-05-13T03:37:53.688Z,424.00
2018-05-13T03:38:53.917Z,452.00
2018-05-13T03:39:54.146Z,488.00
2018-05-13T03:40:54.381Z,520.00
2018-05-13T03:41:54.608Z,560.00
2018-05-13T03:42:54.841Z,600.00
2018-05-13T03:43:55.070Z,648.00
2018-05-13T03:44:55.301Z,700.00
2018-05-13T03:45:55.529Z,752.00
2018-05-13T03:46:55.756Z,808.00
2018-05-13T03:47:55.986Z,872.00
2018-05-13T03:48:56.217Z,940.00
2018-05-13T03:49:56.449Z,1008.00
2018-05-13T03:50:56.677Z,1084.00
2018-05-13T03:51:56.911Z,1160.00
2018-05-13T03:52:57.136Z,1236.00
2018-05-13T03:53:57.367Z,1316.00
2018-05-13T03:54:57.595Z,1400.00
2018-05-13T03:55:57.822Z,1488.00
2018-05-13T03:56:58.054Z,1576.00
2018-05-13T03:57:58.283Z,1664.00
2018-05-13T03:58:58.516Z,1760.00
2018-05-13T03:59:58.746Z,1860.00
2018-05-13T04:00:58.974Z,1952.00
2018-05-13T04:01:59.207Z,2048.00
2018-05-13T04:02:59.432Z,2144.00
2018-05-13T04:03:59.662Z,2276.00
2018-05-13T04:04:59.892Z,2448.00
2018-05-13T04:06:00.125Z,2596.00
2018-05-13T04:07:00.355Z,2664.00
2018-05-13T04:08:00.583Z,2904.00
2018-05-13T04:09:00.814Z,3300.00
2018-05-13T04:10:01.041Z,3552.00
2018-05-13T04:11:01.271Z,3708.00
2018-05-13T04:12:01.503Z,3940.00
2018-05-13T04:13:01.733Z,4264.00
2018-05-13T04:14:01.962Z,4588.00
2018-05-13T04:15:02.191Z,4780.00
2018-05-13T04:16:02.422Z,4896.00
2018-05-13T04:17:02.653Z,5056.00
2018-05-13T04:18:02.884Z,5272.00
2018-05-13T04:19:03.121Z,5424.00
2018-05-13T04:20:03.344Z,5348.00
2018-05-13T04:21:03.575Z,5248.00
2018-05-13T04:22:03.804Z,5224.00
2018-05-13T04:23:04.040Z,5380.00
2018-05-13T04:24:04.268Z,5812.00
2018-05-13T04:25:04.499Z,6308.00
2018-05-13T04:26:04.727Z,6644.00
2018-05-13T04:27:04.962Z,6864.00
2018-05-13T04:28:05.192Z,6896.00
2018-05-13T04:29:05.421Z,6948.00
2018-05-13T04:30:05.656Z,6844.00
2018-05-13T04:31:05.886Z,6876.00
2018-05-13T04:32:06.118Z,6532.00
2018-05-13T04:33:06.350Z,6368.00
2018-05-13T04:34:06.583Z,6068.00
2018-05-13T04:35:06.817Z,6396.00
2018-05-13T04:36:07.049Z,6856.00
2018-05-13T04:37:07.280Z,7320.00
2018-05-13T04:38:07.513Z,7268.00
2018-05-13T04:39:07.747Z,7140.00
2018-05-13T04:40:07.979Z,7408.00
2018-05-13T04:41:08.213Z,7360.00
2018-05-13T04:42:08.446Z,7184.00
2018-05-13T04:43:08.679Z,6900.00
2018-05-13T04:44:08.912Z,6676.00
2018-05-13T04:45:09.144Z,6676.00
2018-05-13T04:46:09.376Z,6936.00
2018-05-13T04:47:09.609Z,7264.00
2018-05-13T04:48:09.844Z,7280.00
2018-05-13T04:49:10.077Z,7172.00
2018-05-13T04:50:10.310Z,7132.00
2018-05-13T04:51:10.547Z,7208.00
2018-05-13T04:52:10.778Z,7096.00
2018-05-13T04:53:11.060Z,6876.00
2018-05-13T04:54:11.245Z,7000.00
2018-05-13T04:55:11.481Z,7276.00
2018-05-13T04:56:11.712Z,7376.00
2018-05-13T04:57:11.958Z,7424.00
2018-05-13T04:58:12.191Z,7412.00
2018-05-13T04:59:12.423Z,7928.00
2018-05-13T05:00:12.659Z,8412.00
2018-05-13T05:01:12.897Z,8712.00
2018-05-13T05:02:13.132Z,9132.00
2018-05-13T05:03:13.365Z,9564.00
2018-05-13T05:04:13.600Z,9812.00
2018-05-13T05:05:13.834Z,10132.00
2018-05-13T05:06:14.076Z,10460.00
2018-05-13T05:07:14.303Z,10268.00
2018-05-13T05:08:14.536Z,10044.00
2018-05-13T05:09:14.772Z,10200.00
2018-05-13T05:10:15.007Z,10260.00
2018-05-13T05:11:15.242Z,10096.00
2018-05-13T05:12:15.477Z,10044.00
2018-05-13T05:13:15.713Z,9972.00
2018-05-13T05:14:15.946Z,9904.00
2018-05-13T05:15:16.183Z,10028.00
2018-05-13T05:16:16.426Z,10108.00
2018-05-13T05:17:16.656Z,10036.00
2018-05-13T05:18:16.896Z,10028.00
2018-05-13T05:19:17.125Z,10248.00
2018-05-13T05:20:17.359Z,10264.00
2018-05-13T05:21:17.594Z,10220.00
2018-05-13T05:22:17.832Z,10272.00
2018-05-13T05:23:18.068Z,10096.00
2018-05-13T05:24:18.304Z,10312.00
2018-05-13T05:25:18.542Z,10148.00
2018-05-13T05:26:18.776Z,10172.00
2018-05-13T05:27:19.020Z,10136.00
2018-05-13T05:28:19.247Z,10032.00
2018-05-13T05:29:19.485Z,9972.00
2018-05-13T05:30:19.720Z,9968.00
2018-05-13T05:31:19.959Z,9988.00
2018-05-13T05:32:20.191Z,9992.00
2018-05-13T05:33:20.432Z,9936.00
2018-05-13T05:34:20.668Z,9780.00
2018-05-13T05:35:20.905Z,9812.00
2018-05-13T05:36:21.142Z,9904.00
2018-05-13T05:37:21.381Z,9952.00
2018-05-13T05:38:21.620Z,9912.00
2018-05-13T05:39:21.859Z,9720.00
2018-05-13T05:40:22.089Z,9660.00
2018-05-13T05:41:22.326Z,9560.00
2018-05-13T05:42:22.565Z,9512.00
2018-05-13T05:43:22.805Z,9640.00
2018-05-13T05:44:23.041Z,9744.00
2018-05-13T05:45:23.279Z,9676.00
2018-05-13T05:46:23.518Z,9800.00
2018-05-13T05:47:23.760Z,9880.00
2018-05-13T05:48:24.035Z,9980.00
2018-05-13T05:49:24.237Z,9972.00
2018-05-13T05:50:24.472Z,10040.00
2018-05-13T05:51:24.709Z,10036.00
2018-05-13T05:52:24.945Z,10088.00
2018-05-13T05:53:25.183Z,10136.00
2018-05-13T05:54:25.433Z,10188.00
2018-05-13T05:55:25.657Z,8680.00
2018-05-13T05:56:25.894Z,9900.00
2018-05-13T05:57:26.132Z,10128.00
2018-05-13T05:58:26.372Z,10168.00
2018-05-13T05:59:26.612Z,10176.00
2018-05-13T06:00:26.851Z,10224.00
2018-05-13T06:01:27.087Z,10292.00
2018-05-13T06:02:27.327Z,10272.00
2018-05-13T06:03:27.566Z,10312.00
2018-05-13T06:04:27.805Z,10268.00
2018-05-13T06:05:28.042Z,10232.00
2018-05-13T06:06:28.282Z,10160.00
2018-05-13T06:07:28.519Z,10084.00
2018-05-13T06:08:28.760Z,10132.00
2018-05-13T06:09:28.996Z,10096.00
2018-05-13T06:10:29.235Z,10052.00
2018-05-13T06:11:29.480Z,10176.00
2018-05-13T06:12:29.718Z,10284.00
2018-05-13T06:13:29.956Z,10368.00
2018-05-13T06:14:30.194Z,10480.00
2018-05-13T06:15:30.434Z,10504.00
2018-05-13T06:16:30.672Z,10468.00
2018-05-13T06:17:30.912Z,10516.00
2018-05-13T06:18:31.151Z,10600.00
2018-05-13T06:19:31.417Z,10692.00
2018-05-13T06:20:31.627Z,10820.00
2018-05-13T06:21:31.863Z,10740.00
2018-05-13T06:22:32.103Z,10776.00
2018-05-13T06:23:32.337Z,10736.00
2018-05-13T06:24:32.577Z,10824.00
2018-05-13T06:25:32.815Z,10364.00
2018-05-13T06:26:33.055Z,10028.00
2018-05-13T06:27:33.292Z,9724.00
2018-05-13T06:28:33.534Z,9976.00
2018-05-13T06:29:33.773Z,10320.00
2018-05-13T06:30:34.014Z,10528.00
2018-05-13T06:31:34.253Z,10556.00
2018-05-13T06:32:34.493Z,10544.00
2018-05-13T06:33:34.735Z,10432.00
2018-05-13T06:34:34.970Z,10216.00
2018-05-13T06:35:35.209Z,10048.00
2018-05-13T06:36:35.448Z,10172.00
2018-05-13T06:37:35.686Z,9860.00
2018-05-13T06:38:35.933Z,9920.00
2018-05-13T06:39:36.201Z,10432.00
2018-05-13T06:40:36.407Z,10440.00
2018-05-13T06:41:36.646Z,10232.00
2018-05-13T06:42:36.889Z,10288.00
2018-05-13T06:43:37.125Z,10836.00
2018-05-13T06:44:37.364Z,10988.00
2018-05-13T06:45:37.603Z,11060.00
2018-05-13T06:46:37.846Z,11152.00
2018-05-13T06:47:38.091Z,11152.00
2018-05-13T06:48:38.327Z,11140.00
2018-05-13T06:49:38.566Z,11068.00
2018-05-13T06:50:38.805Z,11080.00
2018-05-13T06:51:39.044Z,10936.00
2018-05-13T06:52:39.284Z,10956.00
2018-05-13T06:53:39.520Z,10872.00
2018-05-13T06:54:39.763Z,10880.00
2018-05-13T06:55:40.001Z,10956.00
2018-05-13T06:56:40.238Z,9072.00
2018-05-13T06:57:40.476Z,9584.00
2018-05-13T06:58:40.716Z,10292.00
2018-05-13T06:59:40.955Z,10536.00
2018-05-13T07:00:41.194Z,10580.00
2018-05-13T07:01:41.443Z,10600.00
2018-05-13T07:02:41.682Z,10632.00
2018-05-13T07:03:41.918Z,10616.00
2018-05-13T07:04:42.165Z,10596.00
2018-05-13T07:05:42.408Z,10608.00
2018-05-13T07:06:42.646Z,10592.00
2018-05-13T07:07:42.884Z,10572.00
2018-05-13T07:08:43.120Z,10556.00
2018-05-13T07:09:43.359Z,10564.00
2018-05-13T07:10:43.598Z,10560.00
2018-05-13T07:11:43.836Z,10552.00
2018-05-13T07:12:44.075Z,10544.00
2018-05-13T07:13:44.313Z,10524.00
2018-05-13T07:14:44.551Z,10492.00
2018-05-13T07:15:44.789Z,10444.00
2018-05-13T07:16:45.026Z,10408.00
2018-05-13T07:17:45.267Z,10368.00
2018-05-13T07:18:45.503Z,10340.00
2018-05-13T07:19:45.739Z,10332.00
2018-05-13T07:20:45.980Z,10324.00
2018-05-13T07:21:46.214Z,10308.00
2018-05-13T07:22:46.451Z,10252.00
2018-05-13T07:23:46.690Z,10264.00
2018-05-13T07:24:46.928Z,10256.00
2018-05-13T07:25:47.165Z,10224.00
2018-05-13T07:26:47.405Z,10204.00
2018-05-13T07:27:47.641Z,10180.00
2018-05-13T07:28:47.878Z,10160.00
2018-05-13T07:29:48.201Z,10136.00
2018-05-13T07:30:48.357Z,10124.00
2018-05-13T07:31:48.594Z,10100.00
2018-05-13T07:32:48.833Z,10060.00
2018-05-13T07:33:49.074Z,10004.00
2018-05-13T07:34:49.309Z,9952.00
2018-05-13T07:35:49.546Z,9908.00
2018-05-13T07:36:49.784Z,9872.00
2018-05-13T07:37:50.019Z,9840.00
2018-05-13T07:38:50.256Z,9836.00
2018-05-13T07:39:50.495Z,9808.00
2018-05-13T07:40:50.732Z,9740.00
2018-05-13T07:41:50.968Z,9664.00
2018-05-13T07:42:51.206Z,9580.00
2018-05-13T07:43:51.443Z,9512.00
2018-05-13T07:44:51.680Z,9488.00
2018-05-13T07:45:51.917Z,9428.00
2018-05-13T07:46:52.155Z,9376.00
2018-05-13T07:47:52.391Z,9348.00
2018-05-13T07:48:52.629Z,9304.00
2018-05-13T07:49:52.865Z,9276.00
2018-05-13T07:50:53.154Z,9264.00
2018-05-13T07:51:53.340Z,9220.00
2018-05-13T07:52:53.578Z,9184.00
2018-05-13T07:53:53.814Z,9148.00
2018-05-13T07:54:54.053Z,9104.00
2018-05-13T07:55:54.289Z,9112.00
2018-05-13T07:56:54.529Z,9100.00
2018-05-13T07:57:54.828Z,9088.00
2018-05-13T07:58:55.003Z,9124.00
2018-05-13T07:59:55.237Z,9112.00
2018-05-13T08:00:55.478Z,9104.00
2018-05-13T08:01:55.712Z,9092.00
2018-05-13T08:02:55.944Z,9044.00
2018-05-13T08:03:56.183Z,9012.00
2018-05-13T08:04:56.420Z,8908.00
2018-05-13T08:05:56.656Z,8376.00
2018-05-13T08:06:56.893Z,8860.00
2018-05-13T08:07:57.127Z,8864.00
2018-05-13T08:08:57.360Z,8860.00
2018-05-13T08:09:57.597Z,7608.00
2018-05-13T08:10:57.834Z,7892.00
2018-05-13T08:11:58.069Z,8160.00
2018-05-13T08:12:58.310Z,8064.00
2018-05-13T08:13:58.583Z,6484.00
2018-05-13T08:14:58.778Z,6008.00
2018-05-13T08:15:59.014Z,5876.00
2018-05-13T08:16:59.256Z,5884.00
2018-05-13T08:17:59.491Z,5912.00
2018-05-13T08:18:59.726Z,5860.00
2018-05-13T08:19:59.962Z,5828.00
2018-05-13T08:21:00.197Z,5860.00
2018-05-13T08:22:00.437Z,5784.00
2018-05-13T08:23:00.671Z,5756.00
2018-05-13T08:24:00.908Z,5796.00
2018-05-13T08:25:01.143Z,5884.00
2018-05-13T08:26:01.382Z,6072.00
2018-05-13T08:27:01.620Z,6080.00
2018-05-13T08:28:01.855Z,6008.00
2018-05-13T08:29:02.091Z,5968.00
2018-05-13T08:30:02.329Z,6028.00
2018-05-13T08:31:02.564Z,5972.00
2018-05-13T08:32:02.799Z,5992.00
2018-05-13T08:33:03.033Z,5976.00
2018-05-13T08:34:03.268Z,5964.00
2018-05-13T08:35:03.505Z,6008.00
2018-05-13T08:36:03.744Z,5980.00
2018-05-13T08:37:03.976Z,5996.00
2018-05-13T08:38:04.213Z,6092.00
2018-05-13T08:39:04.447Z,6600.00
2018-05-13T08:40:04.683Z,8336.00
2018-05-13T08:41:04.919Z,7112.00
2018-05-13T08:42:05.157Z,6440.00
2018-05-13T08:43:05.388Z,6420.00
2018-05-13T08:44:05.624Z,5732.00
2018-05-13T08:45:05.859Z,5520.00
2018-05-13T08:46:06.096Z,6248.00
2018-05-13T08:47:06.331Z,6324.00
2018-05-13T08:48:06.635Z,8040.00
2018-05-13T08:49:06.803Z,8016.00
2018-05-13T08:50:07.042Z,8016.00
2018-05-13T08:51:07.281Z,8020.00
2018-05-13T08:52:07.516Z,8020.00
2018-05-13T08:53:07.754Z,7972.00
2018-05-13T08:54:07.993Z,7976.00
2018-05-13T08:55:08.229Z,7936.00
2018-05-13T08:56:08.465Z,7892.00
2018-05-13T08:57:08.701Z,7964.00
2018-05-13T08:58:08.931Z,7960.00
2018-05-13T08:59:09.186Z,7908.00
2018-05-13T09:00:09.420Z,7924.00
2018-05-13T09:01:09.657Z,7956.00
2018-05-13T09:02:09.896Z,7964.00
2018-05-13T09:03:10.131Z,7972.00
2018-05-13T09:04:10.369Z,8008.00
2018-05-13T09:05:10.604Z,8020.00
2018-05-13T09:06:10.841Z,8028.00
2018-05-13T09:07:11.078Z,8020.00
2018-05-13T09:08:11.316Z,8008.00
2018-05-13T09:09:11.550Z,8020.00
2018-05-13T09:10:11.793Z,7984.00
2018-05-13T09:11:12.028Z,8028.00
2018-05-13T09:12:12.263Z,7940.00
2018-05-13T09:13:12.497Z,7748.00
2018-05-13T09:14:12.822Z,7996.00
2018-05-13T09:15:12.972Z,8072.00
2018-05-13T09:16:13.212Z,8012.00
2018-05-13T09:17:13.445Z,7772.00
2018-05-13T09:18:13.685Z,7876.00
2018-05-13T09:19:13.919Z,7952.00
2018-05-13T09:20:14.157Z,8084.00
2018-05-13T09:21:14.391Z,8268.00
2018-05-13T09:22:14.627Z,8576.00
2018-05-13T09:23:14.862Z,8784.00
2018-05-13T09:24:15.097Z,6884.00
2018-05-13T09:25:15.335Z,8452.00
2018-05-13T09:26:15.575Z,8092.00
2018-05-13T09:27:15.815Z,8076.00
2018-05-13T09:28:16.048Z,8172.00
2018-05-13T09:29:16.285Z,7872.00
2018-05-13T09:30:16.524Z,8088.00
2018-05-13T09:31:16.759Z,7476.00
2018-05-13T09:32:16.997Z,6400.00
2018-05-13T09:33:17.233Z,6788.00
2018-05-13T09:34:17.471Z,6416.00
2018-05-13T09:35:17.707Z,6416.00
2018-05-13T09:36:17.946Z,7912.00
2018-05-13T09:37:18.184Z,7216.00
2018-05-13T09:38:18.420Z,8136.00
2018-05-13T09:39:18.658Z,8568.00
2018-05-13T09:40:18.896Z,8840.00
2018-05-13T09:41:19.132Z,8816.00
2018-05-13T09:42:19.372Z,8500.00
2018-05-13T09:43:19.606Z,8744.00
2018-05-13T09:44:19.843Z,8520.00
2018-05-13T09:45:20.082Z,8560.00
2018-05-13T09:46:20.318Z,8140.00
2018-05-13T09:47:20.554Z,7996.00
2018-05-13T09:48:20.805Z,8344.00
2018-05-13T09:49:21.028Z,8408.00
2018-05-13T09:50:21.269Z,8520.00
2018-05-13T09:51:21.537Z,8124.00
2018-05-13T09:52:21.748Z,8352.00
2018-05-13T09:53:21.980Z,8636.00
2018-05-13T09:54:22.218Z,8768.00
2018-05-13T09:55:22.458Z,8800.00
2018-05-13T09:56:22.700Z,8800.00
2018-05-13T09:57:22.935Z,8644.00
2018-05-13T09:58:23.173Z,8472.00
2018-05-13T09:59:23.411Z,8756.00
2018-05-13T10:00:23.647Z,8940.00
2018-05-13T10:01:23.886Z,8628.00
2018-05-13T10:02:24.128Z,6908.00
2018-05-13T10:03:24.367Z,7688.00
2018-05-13T10:04:24.607Z,8288.00
2018-05-13T10:05:24.839Z,8724.00
2018-05-13T10:06:25.080Z,8192.00
2018-05-13T10:07:25.315Z,8652.00
2018-05-13T10:08:25.552Z,7592.00
2018-05-13T10:09:25.810Z,8368.00
2018-05-13T10:10:26.029Z,8800.00
2018-05-13T10:11:26.274Z,8992.00
2018-05-13T10:12:26.506Z,10452.00
2018-05-13T10:13:26.740Z,9008.00
2018-05-13T10:14:26.981Z,8852.00
2018-05-13T10:15:27.220Z,8564.00
2018-05-13T10:16:27.458Z,9864.00
2018-05-13T10:17:27.692Z,9824.00
2018-05-13T10:18:27.935Z,10652.00
2018-05-13T10:19:28.182Z,11000.00
2018-05-13T10:20:28.540Z,9176.00
2018-05-13T10:21:28.681Z,8932.00
2018-05-13T10:22:28.921Z,8748.00
2018-05-13T10:23:29.155Z,8600.00
2018-05-13T10:24:29.395Z,10136.00
2018-05-13T10:25:29.634Z,9380.00
2018-05-13T10:26:29.869Z,8388.00
2018-05-13T10:27:30.110Z,10304.00
2018-05-13T10:28:30.350Z,11196.00
2018-05-13T10:29:30.589Z,11468.00
2018-05-13T10:30:30.826Z,11064.00
2018-05-13T10:31:31.065Z,11724.00
2018-05-13T10:32:31.302Z,11472.00
2018-05-13T10:33:31.609Z,12008.00
2018-05-13T10:34:31.823Z,12072.00
2018-05-13T10:35:32.005Z,12008.00
2018-05-13T10:36:32.217Z,12668.00
2018-05-13T10:37:32.461Z,12304.00
2018-05-13T10:38:32.696Z,12500.00
2018-05-13T10:39:32.931Z,11896.00
2018-05-13T10:40:33.166Z,9728.00
2018-05-13T10:41:33.417Z,9956.00
2018-05-13T10:42:33.694Z,10188.00
2018-05-13T10:43:33.889Z,10416.00
2018-05-13T10:44:34.126Z,10980.00
2018-05-13T10:45:34.366Z,11240.00
2018-05-13T10:46:34.603Z,12820.00
2018-05-13T10:47:34.842Z,11700.00
2018-05-13T10:48:35.085Z,11888.00
2018-05-13T10:49:35.325Z,10464.00
2018-05-13T10:50:35.559Z,9200.00
2018-05-13T10:51:35.798Z,8636.00
2018-05-13T10:52:36.038Z,8112.00
2018-05-13T10:53:36.284Z,7520.00
2018-05-13T10:54:36.519Z,6760.00
2018-05-13T10:55:36.763Z,6280.00
2018-05-13T10:56:37.000Z,5884.00
2018-05-13T10:57:37.237Z,5632.00
2018-05-13T10:58:37.478Z,5500.00
2018-05-13T10:59:37.720Z,5540.00
2018-05-13T11:00:37.964Z,5512.00
2018-05-13T11:01:38.199Z,5516.00
2018-05-13T11:02:38.439Z,5576.00
2018-05-13T11:03:38.683Z,5712.00
2018-05-13T11:04:38.993Z,5908.00
2018-05-13T11:05:39.157Z,6160.00
2018-05-13T11:06:39.398Z,6392.00
2018-05-13T11:07:39.632Z,6628.00
2018-05-13T11:08:39.876Z,6964.00
2018-05-13T11:09:40.109Z,7404.00
2018-05-13T11:10:40.359Z,7904.00
2018-05-13T11:11:40.594Z,8528.00
2018-05-13T11:12:40.834Z,9204.00
2018-05-13T11:13:41.073Z,10072.00
2018-05-13T11:14:41.312Z,12172.00
2018-05-13T11:15:41.554Z,12296.00
2018-05-13T11:16:41.793Z,13136.00
2018-05-13T11:17:42.036Z,13452.00
2018-05-13T11:18:42.273Z,13520.00
2018-05-13T11:19:42.557Z,13600.00
2018-05-13T11:20:42.796Z,13572.00
2018-05-13T11:21:42.993Z,13344.00
2018-05-13T11:22:43.291Z,11208.00
2018-05-13T11:23:43.475Z,10724.00
2018-05-13T11:24:43.713Z,10276.00
2018-05-13T11:25:43.954Z,10008.00
2018-05-13T11:26:44.242Z,9760.00
2018-05-13T11:27:44.425Z,9240.00
2018-05-13T11:28:44.667Z,8832.00
2018-05-13T11:29:44.909Z,8628.00
2018-05-13T11:30:45.147Z,8600.00
2018-05-13T11:31:45.386Z,8724.00
2018-05-13T11:32:45.625Z,8920.00
2018-05-13T11:33:45.875Z,9280.00
2018-05-13T11:34:46.101Z,9652.00
2018-05-13T11:35:46.338Z,9816.00
2018-05-13T11:36:46.582Z,9848.00
2018-05-13T11:37:46.813Z,9928.00
2018-05-13T11:38:47.054Z,10032.00
2018-05-13T11:39:47.291Z,10164.00
2018-05-13T11:40:47.528Z,10512.00
2018-05-13T11:41:47.768Z,10964.00
2018-05-13T11:42:48.007Z,11212.00
2018-05-13T11:43:48.245Z,11592.00
2018-05-13T11:44:48.473Z,12380.00
2018-05-13T11:45:48.712Z,13056.00
2018-05-13T11:46:49.017Z,13692.00
2018-05-13T11:47:49.183Z,14064.00
2018-05-13T11:48:49.424Z,13552.00
2018-05-13T11:49:49.657Z,12852.00
2018-05-13T11:50:49.947Z,12060.00
2018-05-13T11:51:50.152Z,11412.00
2018-05-13T11:52:50.392Z,11072.00
2018-05-13T11:53:50.633Z,10500.00
2018-05-13T11:54:50.871Z,10484.00
2018-05-13T11:55:51.112Z,10528.00
2018-05-13T11:56:51.349Z,10556.00
2018-05-13T11:57:51.593Z,10888.00
2018-05-13T11:58:51.831Z,12152.00
2018-05-13T11:59:52.067Z,12992.00
2018-05-13T12:00:52.334Z,12788.00
2018-05-13T12:01:52.576Z,12932.00
2018-05-13T12:02:52.817Z,13208.00
2018-05-13T12:03:53.054Z,13180.00
2018-05-13T12:04:53.290Z,12960.00
2018-05-13T12:05:53.534Z,12712.00
2018-05-13T12:06:53.766Z,12612.00
2018-05-13T12:07:54.005Z,11564.00
2018-05-13T12:08:54.246Z,11636.00
2018-05-13T12:09:54.483Z,11344.00
2018-05-13T12:10:54.725Z,11712.00
2018-05-13T12:11:54.963Z,11644.00
2018-05-13T12:12:55.204Z,12232.00
2018-05-13T12:13:55.441Z,12988.00
2018-05-13T12:14:55.678Z,12896.00
2018-05-13T12:15:55.914Z,12224.00
2018-05-13T12:16:56.153Z,11260.00
2018-05-13T12:17:56.390Z,10576.00
2018-05-13T12:18:56.625Z,9416.00
2018-05-13T12:19:56.879Z,8840.00
2018-05-13T12:20:57.125Z,8508.00